Portada
METAR-TAF:

METAR-TAF

Aeropuertos :

Aeropuerto Internacional de Kuwait

Ciudad de Kuwait, Kuwait

latitud: 29-13N, longitud: 047-59E, altitud: 55 m

Observación

El informe se hizo hace 16 minutos, a las 22:00 UTC
Viento 11 kt del norte
Temperatura 36°C
Humedad 19%
Presión 1003 hPa
Visibilidad 10 km o más
sin nubes por debajo de 1500 m y sin presencia de cumulonimbus.

METAR: OKBK 192200Z 36011KT CAVOK 36/09 Q1003 NOSIG

Hora: 01:16 (22:16 UTC)

Pronóstico

El informe se hizo hace 5 horas y 31 minutos, a las 16:45 UTC
Pronóstico válido del 19 a las 18 UTC al 20 a las 24 UTC
Viento 12 kt del norte con ráfagas de 22 kt
Visibilidad: 7000 m
Cielo despejado
Temporalmente
del 19 a las 18 UTC al 19 a las 22 UTC
Visibilidad: 4000 m
Ventisca alta de polvo

TAF: OKBK 191645Z 1918/2024 35012G22KT 7000 SKC TEMPO 1918/1922 4000 BLDU

Observaciones y pronósticos meteorológicos de más de 4000 aeropuertos (mensajes METAR y TAF).

Los puntos amarillos y rojos representan las estaciones disponibles.

Ponga el ratón en el punto deseado para ver el nombre de la estación.

Haga clic para ver las observaciones y los pronósticos meteorológicos.

Para cambiar el mapa : haga clic en los botones verdes con una cruz de color negro para hacer un zoom, en el botón verde con un guión para alejar o en las flechas verdes para mapas adyacentes.


METAR-TAF: